sensor_id;sensor_type;location;lat;lon;timestamp;pressure;altitude;pressure_sealevel;temperature;humidity
4022;BME280;2025;48.260;16.432;2023-07-28T00:01:57;99248.00;;;20.36;47.45
4022;BME280;2025;48.260;16.432;2023-07-28T00:04:26;99250.09;;;20.34;48.23
4022;BME280;2025;48.260;16.432;2023-07-28T00:06:53;99241.78;;;20.31;48.58
4022;BME280;2025;48.260;16.432;2023-07-28T00:09:19;99240.41;;;20.28;48.79
4022;BME280;2025;48.260;16.432;2023-07-28T00:11:48;99239.56;;;20.28;48.48
4022;BME280;2025;48.260;16.432;2023-07-28T00:14:15;99239.25;;;20.24;49.13
4022;BME280;2025;48.260;16.432;2023-07-28T00:16:42;99232.03;;;20.25;49.02
4022;BME280;2025;48.260;16.432;2023-07-28T00:19:09;99229.88;;;20.21;49.07
4022;BME280;2025;48.260;16.432;2023-07-28T00:21:37;99237.97;;;20.27;49.41
4022;BME280;2025;48.260;16.432;2023-07-28T00:24:05;99237.91;;;20.21;49.36
4022;BME280;2025;48.260;16.432;2023-07-28T00:26:32;99243.53;;;20.25;49.49
4022;BME280;2025;48.260;16.432;2023-07-28T00:28:58;99250.47;;;20.21;49.76
4022;BME280;2025;48.260;16.432;2023-07-28T00:31:25;99255.81;;;20.21;49.67
4022;BME280;2025;48.260;16.432;2023-07-28T00:33:52;99249.63;;;20.20;50.28
4022;BME280;2025;48.260;16.432;2023-07-28T00:36:19;99247.53;;;20.23;49.91
4022;BME280;2025;48.260;16.432;2023-07-28T00:38:48;99249.31;;;20.17;50.23
4022;BME280;2025;48.260;16.432;2023-07-28T00:41:14;99249.31;;;20.17;50.53
4022;BME280;2025;48.260;16.432;2023-07-28T00:43:41;99242.03;;;20.12;50.62
4022;BME280;2025;48.260;16.432;2023-07-28T00:46:09;99245.28;;;20.14;50.58
4022;BME280;2025;48.260;16.432;2023-07-28T00:48:36;99238.78;;;20.10;50.64
4022;BME280;2025;48.260;16.432;2023-07-28T00:51:03;99245.50;;;20.13;50.53
4022;BME280;2025;48.260;16.432;2023-07-28T00:53:31;99240.16;;;20.13;50.69
4022;BME280;2025;48.260;16.432;2023-07-28T00:56:00;99237.56;;;20.18;50.31
4022;BME280;2025;48.260;16.432;2023-07-28T00:58:28;99235.69;;;20.18;50.85
4022;BME280;2025;48.260;16.432;2023-07-28T01:00:55;99233.75;;;20.14;51.12
4022;BME280;2025;48.260;16.432;2023-07-28T01:03:22;99227.59;;;20.13;51.33
4022;BME280;2025;48.260;16.432;2023-07-28T01:05:55;99245.00;;;20.16;51.31
4022;BME280;2025;48.260;16.432;2023-07-28T01:08:28;99231.06;;;20.14;51.08
4022;BME280;2025;48.260;16.432;2023-07-28T01:10:56;99233.69;;;20.09;51.46
4022;BME280;2025;48.260;16.432;2023-07-28T01:13:25;99229.91;;;20.05;51.74
4022;BME280;2025;48.260;16.432;2023-07-28T01:15:52;99222.59;;;20.00;52.28
4022;BME280;2025;48.260;16.432;2023-07-28T01:18:19;99233.53;;;19.98;52.43
4022;BME280;2025;48.260;16.432;2023-07-28T01:20:46;99231.09;;;19.97;52.63
4022;BME280;2025;48.260;16.432;2023-07-28T01:23:18;99234.56;;;19.97;53.28
4022;BME280;2025;48.260;16.432;2023-07-28T01:25:50;99228.41;;;19.97;53.40
4022;BME280;2025;48.260;16.432;2023-07-28T01:28:22;99221.47;;;19.96;53.53
4022;BME280;2025;48.260;16.432;2023-07-28T01:30:49;99220.91;;;19.94;54.03
4022;BME280;2025;48.260;16.432;2023-07-28T01:33:16;99208.84;;;19.91;54.36
4022;BME280;2025;48.260;16.432;2023-07-28T01:35:43;99215.94;;;19.86;54.80
4022;BME280;2025;48.260;16.432;2023-07-28T01:38:10;99221.78;;;19.83;54.65
4022;BME280;2025;48.260;16.432;2023-07-28T01:40:38;99226.31;;;19.82;55.11
4022;BME280;2025;48.260;16.432;2023-07-28T01:43:05;99219.59;;;19.79;55.61
4022;BME280;2025;48.260;16.432;2023-07-28T01:45:33;99219.59;;;19.79;56.36
4022;BME280;2025;48.260;16.432;2023-07-28T01:48:00;99223.56;;;19.77;56.70
4022;BME280;2025;48.260;16.432;2023-07-28T01:50:27;99221.38;;;19.74;57.28
4022;BME280;2025;48.260;16.432;2023-07-28T01:52:55;99221.06;;;19.70;57.45
4022;BME280;2025;48.260;16.432;2023-07-28T01:55:22;99211.88;;;19.66;57.81
4022;BME280;2025;48.260;16.432;2023-07-28T01:57:55;99208.13;;;19.67;57.94
4022;BME280;2025;48.260;16.432;2023-07-28T02:00:22;99211.06;;;19.66;58.26
4022;BME280;2025;48.260;16.432;2023-07-28T02:02:51;99203.84;;;19.66;58.26
4022;BME280;2025;48.260;16.432;2023-07-28T02:05:18;99202.00;;;19.67;58.37
4022;BME280;2025;48.260;16.432;2023-07-28T02:07:46;99204.09;;;19.65;58.66
4022;BME280;2025;48.260;16.432;2023-07-28T02:10:13;99200.38;;;19.66;58.88
4022;BME280;2025;48.260;16.432;2023-07-28T02:12:40;99190.16;;;19.63;58.78
4022;BME280;2025;48.260;16.432;2023-07-28T02:15:07;99205.06;;;19.58;58.94
4022;BME280;2025;48.260;16.432;2023-07-28T02:17:35;99205.88;;;19.59;58.88
4022;BME280;2025;48.260;16.432;2023-07-28T02:20:04;99202.41;;;19.58;59.46
4022;BME280;2025;48.260;16.432;2023-07-28T02:22:31;99202.88;;;19.55;59.50
4022;BME280;2025;48.260;16.432;2023-07-28T02:24:58;99201.59;;;19.58;59.57
4022;BME280;2025;48.260;16.432;2023-07-28T02:27:27;99203.78;;;19.61;59.28
4022;BME280;2025;48.260;16.432;2023-07-28T02:29:54;99205.94;;;19.64;59.66
4022;BME280;2025;48.260;16.432;2023-07-28T02:32:21;99202.88;;;19.55;60.38
4022;BME280;2025;48.260;16.432;2023-07-28T02:34:49;99198.25;;;19.51;60.49
4022;BME280;2025;48.260;16.432;2023-07-28T02:37:17;99205.38;;;19.45;60.43
4022;BME280;2025;48.260;16.432;2023-07-28T02:39:44;99199.69;;;19.42;60.51
4022;BME280;2025;48.260;16.432;2023-07-28T02:42:11;99204.72;;;19.38;60.87
4022;BME280;2025;48.260;16.432;2023-07-28T02:44:38;99201.47;;;19.36;60.77
4022;BME280;2025;48.260;16.432;2023-07-28T02:47:06;99200.44;;;19.37;60.61
4022;BME280;2025;48.260;16.432;2023-07-28T02:49:32;99201.69;;;19.34;60.92
4022;BME280;2025;48.260;16.432;2023-07-28T02:51:59;99191.59;;;19.36;60.95
4022;BME280;2025;48.260;16.432;2023-07-28T02:54:30;99198.72;;;19.31;60.80
4022;BME280;2025;48.260;16.432;2023-07-28T02:56:56;99203.97;;;19.26;61.15
4022;BME280;2025;48.260;16.432;2023-07-28T02:59:23;99191.34;;;19.21;61.67
4022;BME280;2025;48.260;16.432;2023-07-28T03:01:50;99192.38;;;19.20;61.56
4022;BME280;2025;48.260;16.432;2023-07-28T03:04:18;99201.66;;;19.17;61.48
4022;BME280;2025;48.260;16.432;2023-07-28T03:06:46;99193.34;;;19.14;61.93
4022;BME280;2025;48.260;16.432;2023-07-28T03:09:13;99193.56;;;19.12;62.74
4022;BME280;2025;48.260;16.432;2023-07-28T03:11:43;99186.28;;;19.08;61.96
4022;BME280;2025;48.260;16.432;2023-07-28T03:14:10;99180.94;;;19.08;62.05
4022;BME280;2025;48.260;16.432;2023-07-28T03:16:38;99173.75;;;19.08;61.53
4022;BME280;2025;48.260;16.432;2023-07-28T03:19:05;99171.06;;;19.08;61.88
4022;BME280;2025;48.260;16.432;2023-07-28T03:21:33;99178.84;;;19.10;61.93
4022;BME280;2025;48.260;16.432;2023-07-28T03:24:00;99178.63;;;19.11;61.28
4022;BME280;2025;48.260;16.432;2023-07-28T03:26:26;99180.47;;;19.11;61.04
4022;BME280;2025;48.260;16.432;2023-07-28T03:28:55;99179.06;;;19.08;60.93
4022;BME280;2025;48.260;16.432;2023-07-28T03:31:22;99173.75;;;19.08;61.12
4022;BME280;2025;48.260;16.432;2023-07-28T03:33:49;99175.84;;;19.06;62.58
4022;BME280;2025;48.260;16.432;2023-07-28T03:36:16;99180.28;;;19.01;62.58
4022;BME280;2025;48.260;16.432;2023-07-28T03:38:44;99173.47;;;18.93;63.35
4022;BME280;2025;48.260;16.432;2023-07-28T03:41:11;99171.97;;;18.85;63.58
4022;BME280;2025;48.260;16.432;2023-07-28T03:43:39;99176.28;;;18.74;64.61
4022;BME280;2025;48.260;16.432;2023-07-28T03:46:08;99175.25;;;18.64;64.11
4022;BME280;2025;48.260;16.432;2023-07-28T03:48:35;99187.09;;;18.56;64.62
4022;BME280;2025;48.260;16.432;2023-07-28T03:51:01;99184.66;;;18.54;64.03
4022;BME280;2025;48.260;16.432;2023-07-28T03:53:28;99164.50;;;18.59;63.78
4022;BME280;2025;48.260;16.432;2023-07-28T03:55:55;99173.25;;;18.71;63.58
4022;BME280;2025;48.260;16.432;2023-07-28T03:58:24;99162.84;;;18.81;62.95
4022;BME280;2025;48.260;16.432;2023-07-28T04:00:51;99151.78;;;18.89;62.92
4022;BME280;2025;48.260;16.432;2023-07-28T04:03:20;99168.66;;;19.07;59.81
4022;BME280;2025;48.260;16.432;2023-07-28T04:05:47;99162.34;;;19.13;60.00
4022;BME280;2025;48.260;16.432;2023-07-28T04:08:14;99162.69;;;19.16;59.00
4022;BME280;2025;48.260;16.432;2023-07-28T04:10:41;99173.38;;;19.16;58.04
4022;BME280;2025;48.260;16.432;2023-07-28T04:13:08;99169.63;;;19.17;57.50
4022;BME280;2025;48.260;16.432;2023-07-28T04:15:35;99167.31;;;19.21;56.82
4022;BME280;2025;48.260;16.432;2023-07-28T04:18:02;99167.63;;;19.25;56.13
4022;BME280;2025;48.260;16.432;2023-07-28T04:20:30;99177.00;;;19.27;56.72
4022;BME280;2025;48.260;16.432;2023-07-28T04:22:57;99166.91;;;19.29;55.62
4022;BME280;2025;48.260;16.432;2023-07-28T04:25:24;99173.16;;;19.35;55.45
4022;BME280;2025;48.260;16.432;2023-07-28T04:27:51;99182.78;;;19.36;56.57
4022;BME280;2025;48.260;16.432;2023-07-28T04:30:18;99178.50;;;19.35;57.42
4022;BME280;2025;48.260;16.432;2023-07-28T04:32:45;99176.88;;;19.34;56.76
4022;BME280;2025;48.260;16.432;2023-07-28T04:35:12;99171.88;;;19.37;56.79
4022;BME280;2025;48.260;16.432;2023-07-28T04:37:40;99172.44;;;19.40;57.51
4022;BME280;2025;48.260;16.432;2023-07-28T04:40:08;99177.88;;;19.45;56.80
4022;BME280;2025;48.260;16.432;2023-07-28T04:42:35;99182.47;;;19.49;59.41
4022;BME280;2025;48.260;16.432;2023-07-28T04:45:03;99175.84;;;19.52;56.80
4022;BME280;2025;48.260;16.432;2023-07-28T04:47:30;99175.44;;;19.60;57.32
4022;BME280;2025;48.260;16.432;2023-07-28T04:49:57;99183.28;;;19.67;56.15
4022;BME280;2025;48.260;16.432;2023-07-28T04:52:24;99184.53;;;19.76;58.09
4022;BME280;2025;48.260;16.432;2023-07-28T04:54:53;99180.66;;;19.84;57.94
4022;BME280;2025;48.260;16.432;2023-07-28T04:57:19;99180.09;;;19.82;58.94
4022;BME280;2025;48.260;16.432;2023-07-28T04:59:46;99184.59;;;19.81;55.15
4022;BME280;2025;48.260;16.432;2023-07-28T05:02:13;99195.78;;;19.78;56.89
4022;BME280;2025;48.260;16.432;2023-07-28T05:04:40;99182.66;;;19.76;57.88
4022;BME280;2025;48.260;16.432;2023-07-28T05:07:07;99185.53;;;19.70;60.86
4022;BME280;2025;48.260;16.432;2023-07-28T05:09:34;99182.25;;;19.68;60.50
4022;BME280;2025;48.260;16.432;2023-07-28T05:12:03;99186.22;;;19.65;58.12
4022;BME280;2025;48.260;16.432;2023-07-28T05:14:30;99185.16;;;19.66;58.69
4022;BME280;2025;48.260;16.432;2023-07-28T05:16:57;99192.38;;;19.83;56.64
4022;BME280;2025;48.260;16.432;2023-07-28T05:19:24;99196.28;;;19.92;56.18
4022;BME280;2025;48.260;16.432;2023-07-28T05:21:51;99190.06;;;19.86;57.20
4022;BME280;2025;48.260;16.432;2023-07-28T05:24:18;99197.97;;;19.98;55.53
4022;BME280;2025;48.260;16.432;2023-07-28T05:26:45;99195.16;;;20.05;55.03
4022;BME280;2025;48.260;16.432;2023-07-28T05:29:13;99195.38;;;20.03;55.20
4022;BME280;2025;48.260;16.432;2023-07-28T05:31:40;99191.50;;;19.94;56.82
4022;BME280;2025;48.260;16.432;2023-07-28T05:34:07;99190.53;;;19.83;56.73
4022;BME280;2025;48.260;16.432;2023-07-28T05:36:34;99199.03;;;19.80;57.64
4022;BME280;2025;48.260;16.432;2023-07-28T05:39:01;99202.50;;;19.81;56.02
4022;BME280;2025;48.260;16.432;2023-07-28T05:41:28;99203.06;;;19.83;53.91
4022;BME280;2025;48.260;16.432;2023-07-28T05:43:55;99206.63;;;19.88;54.26
4022;BME280;2025;48.260;16.432;2023-07-28T05:46:23;99207.59;;;19.99;54.72
4022;BME280;2025;48.260;16.432;2023-07-28T05:48:50;99201.94;;;20.12;54.35
4022;BME280;2025;48.260;16.432;2023-07-28T05:51:17;99207.50;;;20.11;55.33
4022;BME280;2025;48.260;16.432;2023-07-28T05:53:44;99200.41;;;20.16;53.56
4022;BME280;2025;48.260;16.432;2023-07-28T05:56:11;99205.00;;;20.21;54.72
4022;BME280;2025;48.260;16.432;2023-07-28T05:58:38;99202.69;;;20.30;53.50
4022;BME280;2025;48.260;16.432;2023-07-28T06:01:05;99200.66;;;20.37;51.09
4022;BME280;2025;48.260;16.432;2023-07-28T06:03:33;99199.34;;;20.39;53.75
4022;BME280;2025;48.260;16.432;2023-07-28T06:06:00;99192.00;;;20.47;53.82
4022;BME280;2025;48.260;16.432;2023-07-28T06:08:28;99197.31;;;20.63;51.71
4022;BME280;2025;48.260;16.432;2023-07-28T06:10:56;99194.38;;;20.65;51.73
4022;BME280;2025;48.260;16.432;2023-07-28T06:13:23;99191.97;;;20.63;51.87
4022;BME280;2025;48.260;16.432;2023-07-28T06:15:53;99195.63;;;20.79;52.37
4022;BME280;2025;48.260;16.432;2023-07-28T06:18:20;99193.88;;;20.90;51.67
4022;BME280;2025;48.260;16.432;2023-07-28T06:20:49;99202.31;;;21.04;51.79
4022;BME280;2025;48.260;16.432;2023-07-28T06:23:16;99204.09;;;21.20;51.37
4022;BME280;2025;48.260;16.432;2023-07-28T06:25:43;99200.41;;;21.26;51.47
4022;BME280;2025;48.260;16.432;2023-07-28T06:28:11;99201.69;;;21.46;50.32
4022;BME280;2025;48.260;16.432;2023-07-28T06:30:39;99206.00;;;21.47;51.96
4022;BME280;2025;48.260;16.432;2023-07-28T06:33:06;99209.16;;;21.44;48.02
4022;BME280;2025;48.260;16.432;2023-07-28T06:35:33;99205.06;;;21.36;49.64
4022;BME280;2025;48.260;16.432;2023-07-28T06:38:02;99204.69;;;21.50;48.02
4022;BME280;2025;48.260;16.432;2023-07-28T06:40:29;99205.19;;;21.46;47.50
4022;BME280;2025;48.260;16.432;2023-07-28T06:42:56;99207.38;;;21.50;49.72
4022;BME280;2025;48.260;16.432;2023-07-28T06:45:23;99203.38;;;21.52;47.29
4022;BME280;2025;48.260;16.432;2023-07-28T06:47:50;99201.63;;;21.68;48.45
4022;BME280;2025;48.260;16.432;2023-07-28T06:50:17;99193.69;;;21.83;46.81
4022;BME280;2025;48.260;16.432;2023-07-28T06:52:44;99190.28;;;21.93;46.85
4022;BME280;2025;48.260;16.432;2023-07-28T06:55:14;99193.81;;;21.99;46.72
4022;BME280;2025;48.260;16.432;2023-07-28T06:57:41;99194.97;;;22.08;45.88
4022;BME280;2025;48.260;16.432;2023-07-28T07:00:09;99193.09;;;22.14;46.62
4022;BME280;2025;48.260;16.432;2023-07-28T07:02:37;99192.81;;;22.10;45.47
4022;BME280;2025;48.260;16.432;2023-07-28T07:05:04;99204.59;;;22.09;44.93
4022;BME280;2025;48.260;16.432;2023-07-28T07:07:32;99201.16;;;22.14;45.51
4022;BME280;2025;48.260;16.432;2023-07-28T07:09:59;99199.81;;;22.16;45.75
4022;BME280;2025;48.260;16.432;2023-07-28T07:12:27;99193.97;;;22.19;47.21
4022;BME280;2025;48.260;16.432;2023-07-28T07:14:54;99194.72;;;22.15;45.24
4022;BME280;2025;48.260;16.432;2023-07-28T07:17:21;99196.94;;;22.23;46.17
4022;BME280;2025;48.260;16.432;2023-07-28T07:19:48;99193.03;;;22.41;45.24
4022;BME280;2025;48.260;16.432;2023-07-28T07:22:15;99195.72;;;22.46;44.86
4022;BME280;2025;48.260;16.432;2023-07-28T07:24:42;99202.75;;;22.52;45.06
4022;BME280;2025;48.260;16.432;2023-07-28T07:27:09;99202.22;;;22.55;44.61
4022;BME280;2025;48.260;16.432;2023-07-28T07:29:38;99201.97;;;22.62;45.31
4022;BME280;2025;48.260;16.432;2023-07-28T07:32:07;99199.09;;;22.79;46.32
4022;BME280;2025;48.260;16.432;2023-07-28T07:34:35;99194.63;;;23.05;44.87
4022;BME280;2025;48.260;16.432;2023-07-28T07:37:04;99190.66;;;23.33;44.57
4022;BME280;2025;48.260;16.432;2023-07-28T07:39:31;99191.19;;;23.40;44.45
4022;BME280;2025;48.260;16.432;2023-07-28T07:41:59;99198.47;;;23.45;43.09
4022;BME280;2025;48.260;16.432;2023-07-28T07:44:26;99196.59;;;23.61;45.21
4022;BME280;2025;48.260;16.432;2023-07-28T07:46:55;99188.00;;;23.64;43.88
4022;BME280;2025;48.260;16.432;2023-07-28T07:49:22;99188.56;;;23.86;42.91
4022;BME280;2025;48.260;16.432;2023-07-28T07:51:50;99188.81;;;23.95;41.47
4022;BME280;2025;48.260;16.432;2023-07-28T07:54:17;99187.47;;;23.92;42.32
4022;BME280;2025;48.260;16.432;2023-07-28T07:56:44;99187.47;;;24.03;41.19
4022;BME280;2025;48.260;16.432;2023-07-28T07:59:12;99183.69;;;24.14;41.50
4022;BME280;2025;48.260;16.432;2023-07-28T08:01:39;99185.53;;;24.24;41.64
4022;BME280;2025;48.260;16.432;2023-07-28T08:04:07;99180.69;;;24.36;40.91
4022;BME280;2025;48.260;16.432;2023-07-28T08:06:34;99186.28;;;24.55;39.85
4022;BME280;2025;48.260;16.432;2023-07-28T08:09:01;99171.69;;;24.71;40.11
4022;BME280;2025;48.260;16.432;2023-07-28T08:11:28;99179.19;;;24.74;40.36
4022;BME280;2025;48.260;16.432;2023-07-28T08:13:55;99173.44;;;24.91;41.01
4022;BME280;2025;48.260;16.432;2023-07-28T08:16:22;99171.50;;;25.02;40.20
4022;BME280;2025;48.260;16.432;2023-07-28T08:18:49;99183.00;;;25.13;40.06
4022;BME280;2025;48.260;16.432;2023-07-28T08:21:18;99181.94;;;25.19;39.89
4022;BME280;2025;48.260;16.432;2023-07-28T08:23:45;99166.22;;;25.31;40.55
4022;BME280;2025;48.260;16.432;2023-07-28T08:26:12;99168.25;;;25.50;40.05
4022;BME280;2025;48.260;16.432;2023-07-28T08:28:39;99182.00;;;25.88;39.85
4022;BME280;2025;48.260;16.432;2023-07-28T08:31:06;99168.66;;;25.96;38.93
4022;BME280;2025;48.260;16.432;2023-07-28T08:33:33;99161.03;;;26.03;39.20
4022;BME280;2025;48.260;16.432;2023-07-28T08:36:00;99166.03;;;26.15;39.06
4022;BME280;2025;48.260;16.432;2023-07-28T08:38:29;99168.91;;;26.24;38.84
4022;BME280;2025;48.260;16.432;2023-07-28T08:40:56;99164.03;;;26.26;38.90
4022;BME280;2025;48.260;16.432;2023-07-28T08:43:25;99163.78;;;26.27;38.71
4022;BME280;2025;48.260;16.432;2023-07-28T08:45:53;99181.22;;;26.35;39.33
4022;BME280;2025;48.260;16.432;2023-07-28T08:48:20;99170.88;;;26.42;38.94
4022;BME280;2025;48.260;16.432;2023-07-28T08:50:47;99169.91;;;26.57;38.95
4022;BME280;2025;48.260;16.432;2023-07-28T08:53:14;99178.84;;;26.58;38.86
4022;BME280;2025;48.260;16.432;2023-07-28T08:55:42;99183.13;;;26.59;39.02
4022;BME280;2025;48.260;16.432;2023-07-28T08:58:17;99173.44;;;26.58;38.61
4022;BME280;2025;48.260;16.432;2023-07-28T09:00:44;99175.72;;;26.69;38.89
4022;BME280;2025;48.260;16.432;2023-07-28T09:03:14;99176.25;;;26.90;38.18
4022;BME280;2025;48.260;16.432;2023-07-28T09:05:42;99172.00;;;27.03;37.72
4022;BME280;2025;48.260;16.432;2023-07-28T09:08:09;99180.78;;;27.14;38.03
4022;BME280;2025;48.260;16.432;2023-07-28T09:10:41;99172.84;;;27.23;37.90
4022;BME280;2025;48.260;16.432;2023-07-28T09:13:10;99187.25;;;27.13;37.84
4022;BME280;2025;48.260;16.432;2023-07-28T09:15:39;99175.00;;;27.02;37.83
4022;BME280;2025;48.260;16.432;2023-07-28T09:18:08;99172.75;;;27.09;37.21
4022;BME280;2025;48.260;16.432;2023-07-28T09:20:36;99176.09;;;27.01;38.12
4022;BME280;2025;48.260;16.432;2023-07-28T09:23:03;99172.59;;;27.19;37.67
4022;BME280;2025;48.260;16.432;2023-07-28T09:25:31;99182.03;;;27.22;37.38
4022;BME280;2025;48.260;16.432;2023-07-28T09:27:59;99184.56;;;27.13;38.26
4022;BME280;2025;48.260;16.432;2023-07-28T09:30:43;99185.91;;;27.35;37.51
4022;BME280;2025;48.260;16.432;2023-07-28T09:33:10;99174.41;;;27.43;38.28
4022;BME280;2025;48.260;16.432;2023-07-28T09:35:47;99168.50;;;27.41;37.04
4022;BME280;2025;48.260;16.432;2023-07-28T09:38:14;99168.31;;;27.37;37.23
4022;BME280;2025;48.260;16.432;2023-07-28T09:40:41;99193.28;;;27.29;37.47
4022;BME280;2025;48.260;16.432;2023-07-28T09:43:08;99170.50;;;27.35;37.47
4022;BME280;2025;48.260;16.432;2023-07-28T09:45:37;99174.19;;;27.58;37.06
4022;BME280;2025;48.260;16.432;2023-07-28T09:48:06;99172.41;;;27.67;36.74
4022;BME280;2025;48.260;16.432;2023-07-28T09:50:37;99153.38;;;27.72;37.09
4022;BME280;2025;48.260;16.432;2023-07-28T09:53:04;99155.63;;;27.84;38.59
4022;BME280;2025;48.260;16.432;2023-07-28T09:55:35;99159.88;;;27.90;36.18
4022;BME280;2025;48.260;16.432;2023-07-28T09:58:04;99158.47;;;28.07;37.83
4022;BME280;2025;48.260;16.432;2023-07-28T10:00:33;99156.75;;;28.25;36.97
4022;BME280;2025;48.260;16.432;2023-07-28T10:03:02;99160.47;;;28.29;36.51
4022;BME280;2025;48.260;16.432;2023-07-28T10:05:30;99159.88;;;27.71;36.63
4022;BME280;2025;48.260;16.432;2023-07-28T10:07:57;99161.38;;;27.64;37.45
4022;BME280;2025;48.260;16.432;2023-07-28T10:10:25;99163.47;;;27.86;36.46
4022;BME280;2025;48.260;16.432;2023-07-28T10:12:54;99151.75;;;28.04;36.53
4022;BME280;2025;48.260;16.432;2023-07-28T10:15:28;99142.94;;;27.99;36.69
4022;BME280;2025;48.260;16.432;2023-07-28T10:17:56;99150.16;;;27.70;37.11
4022;BME280;2025;48.260;16.432;2023-07-28T10:20:30;99161.78;;;27.38;37.65
4022;BME280;2025;48.260;16.432;2023-07-28T10:23:05;99152.22;;;27.27;37.68
4022;BME280;2025;48.260;16.432;2023-07-28T10:25:36;99156.09;;;27.40;38.03
4022;BME280;2025;48.260;16.432;2023-07-28T10:28:03;99159.88;;;27.58;37.05
4022;BME280;2025;48.260;16.432;2023-07-28T10:30:35;99151.44;;;27.59;37.44
4022;BME280;2025;48.260;16.432;2023-07-28T10:33:03;99154.66;;;28.22;36.15
4022;BME280;2025;48.260;16.432;2023-07-28T10:35:32;99152.91;;;28.81;35.25
4022;BME280;2025;48.260;16.432;2023-07-28T10:41:12;99143.41;;;29.42;33.52
4022;BME280;2025;48.260;16.432;2023-07-28T10:43:40;99144.25;;;29.52;35.44
4022;BME280;2025;48.260;16.432;2023-07-28T10:46:09;99142.63;;;29.42;33.96
4022;BME280;2025;48.260;16.432;2023-07-28T10:48:37;99150.69;;;29.56;34.34
4022;BME280;2025;48.260;16.432;2023-07-28T10:51:09;99129.34;;;29.63;33.58
4022;BME280;2025;48.260;16.432;2023-07-28T10:53:37;99134.75;;;29.63;33.88
4022;BME280;2025;48.260;16.432;2023-07-28T10:56:05;99152.59;;;29.33;34.16
4022;BME280;2025;48.260;16.432;2023-07-28T10:58:34;99139.34;;;29.54;33.86
4022;BME280;2025;48.260;16.432;2023-07-28T11:01:02;99149.63;;;29.66;33.64
4022;BME280;2025;48.260;16.432;2023-07-28T11:03:29;99151.66;;;29.37;34.41
4022;BME280;2025;48.260;16.432;2023-07-28T11:05:56;99136.63;;;28.95;35.08
4022;BME280;2025;48.260;16.432;2023-07-28T11:08:25;99152.97;;;28.12;36.28
4022;BME280;2025;48.260;16.432;2023-07-28T11:10:52;99157.34;;;27.94;37.69
4022;BME280;2025;48.260;16.432;2023-07-28T11:13:19;99165.69;;;27.98;37.74
4022;BME280;2025;48.260;16.432;2023-07-28T11:15:46;99160.00;;;28.54;36.98
4022;BME280;2025;48.260;16.432;2023-07-28T11:18:15;99159.16;;;28.82;35.99
4022;BME280;2025;48.260;16.432;2023-07-28T11:20:42;99162.06;;;28.71;35.72
4022;BME280;2025;48.260;16.432;2023-07-28T11:23:13;99156.59;;;28.35;37.01
4022;BME280;2025;48.260;16.432;2023-07-28T11:25:42;99147.97;;;28.47;37.63
4022;BME280;2025;48.260;16.432;2023-07-28T11:28:10;99151.59;;;28.92;36.97
4022;BME280;2025;48.260;16.432;2023-07-28T11:30:37;99147.53;;;29.40;35.89
4022;BME280;2025;48.260;16.432;2023-07-28T11:33:08;99142.97;;;29.27;36.45
4022;BME280;2025;48.260;16.432;2023-07-28T11:35:36;99139.03;;;28.96;36.19
4022;BME280;2025;48.260;16.432;2023-07-28T11:38:03;99138.28;;;28.82;36.47
4022;BME280;2025;48.260;16.432;2023-07-28T11:40:30;99150.75;;;29.19;35.70
4022;BME280;2025;48.260;16.432;2023-07-28T11:42:59;99143.22;;;29.16;35.25
4022;BME280;2025;48.260;16.432;2023-07-28T11:45:26;99145.00;;;29.21;35.55
4022;BME280;2025;48.260;16.432;2023-07-28T11:47:57;99145.94;;;29.16;35.52
4022;BME280;2025;48.260;16.432;2023-07-28T11:50:25;99135.38;;;28.78;37.27
4022;BME280;2025;48.260;16.432;2023-07-28T11:52:53;99155.94;;;28.79;36.60
4022;BME280;2025;48.260;16.432;2023-07-28T11:55:20;99135.91;;;29.03;36.78
4022;BME280;2025;48.260;16.432;2023-07-28T11:57:48;99122.47;;;29.66;37.07
4022;BME280;2025;48.260;16.432;2023-07-28T12:00:17;99124.56;;;29.91;34.60
4022;BME280;2025;48.260;16.432;2023-07-28T12:03:00;99124.50;;;29.60;34.69
4022;BME280;2025;48.260;16.432;2023-07-28T12:05:27;99127.19;;;29.51;35.12
4022;BME280;2025;48.260;16.432;2023-07-28T12:07:54;99121.81;;;29.60;35.47
4022;BME280;2025;48.260;16.432;2023-07-28T12:10:21;99121.72;;;30.05;35.20
4022;BME280;2025;48.260;16.432;2023-07-28T12:12:49;99120.97;;;30.22;33.17
4022;BME280;2025;48.260;16.432;2023-07-28T12:15:22;99130.63;;;29.97;32.95
4022;BME280;2025;48.260;16.432;2023-07-28T12:18:07;99125.72;;;30.56;31.91
4022;BME280;2025;48.260;16.432;2023-07-28T12:20:36;99125.63;;;29.81;32.32
4022;BME280;2025;48.260;16.432;2023-07-28T12:23:04;99121.78;;;29.29;33.90
4022;BME280;2025;48.260;16.432;2023-07-28T12:25:31;99125.44;;;28.74;34.90
4022;BME280;2025;48.260;16.432;2023-07-28T12:27:58;99137.72;;;28.57;35.68
4022;BME280;2025;48.260;16.432;2023-07-28T12:30:27;99127.88;;;28.34;35.38
4022;BME280;2025;48.260;16.432;2023-07-28T12:32:54;99142.31;;;28.02;36.18
4022;BME280;2025;48.260;16.432;2023-07-28T12:35:22;99148.06;;;28.14;36.79
4022;BME280;2025;48.260;16.432;2023-07-28T12:37:50;99153.47;;;28.14;36.95
4022;BME280;2025;48.260;16.432;2023-07-28T12:40:18;99160.97;;;27.70;37.96
4022;BME280;2025;48.260;16.432;2023-07-28T12:42:46;99156.66;;;27.56;39.33
4022;BME280;2025;48.260;16.432;2023-07-28T12:45:13;99164.53;;;27.52;39.80
4022;BME280;2025;48.260;16.432;2023-07-28T12:47:42;99174.50;;;27.38;39.69
4022;BME280;2025;48.260;16.432;2023-07-28T12:50:10;99170.16;;;27.23;39.88
4022;BME280;2025;48.260;16.432;2023-07-28T12:52:37;99176.84;;;27.06;40.41
4022;BME280;2025;48.260;16.432;2023-07-28T12:55:04;99168.44;;;26.89;40.68
4022;BME280;2025;48.260;16.432;2023-07-28T12:57:31;99178.94;;;26.72;41.44
4022;BME280;2025;48.260;16.432;2023-07-28T12:59:58;99180.88;;;26.66;42.15
4022;BME280;2025;48.260;16.432;2023-07-28T13:02:25;99173.63;;;26.61;42.69
4022;BME280;2025;48.260;16.432;2023-07-28T13:04:54;99183.94;;;26.59;42.33
4022;BME280;2025;48.260;16.432;2023-07-28T13:07:20;99186.34;;;26.61;42.78
4022;BME280;2025;48.260;16.432;2023-07-28T13:09:48;99184.00;;;26.54;43.15
4022;BME280;2025;48.260;16.432;2023-07-28T13:12:15;99181.84;;;26.51;43.25
4022;BME280;2025;48.260;16.432;2023-07-28T13:14:42;99185.47;;;26.41;43.08
4022;BME280;2025;48.260;16.432;2023-07-28T13:17:09;99172.31;;;26.35;43.30